METAR / TAF

Die METAR- und TAF-Liste ist aus technischen Gründen (Verfügbarkeit, Update-Zyklen) nicht für ein Meteo-Briefing gedacht. Benutzen Sie stattdessen skybriefing der Skyguide  oder das TAMSI (MeteoSchweiz-eigene Meteo Selfbriefing-Plattform für Firmen aus der Aviatik; Anfragen über das

Kontaktformular

METAR Schweiz

METAR     LSZH 102320Z 00000KT 3000 R14/0400N R16/1100U R28/P2000N
               R34/P2000N BCFG FEW001 M05/M05 Q1025 BECMG 2500=
METAR     LSZH 102350Z 32001KT 3000 BCFG FEW001 M05/M06 Q1025 NOSIG=
METAR     LSGG 102320Z AUTO VRB02KT 0350 R05/0650U R23/0700N FZFG
               VV001 M02/M02 Q1026 NOSIG=
METAR     LSGG 102350Z AUTO 23003KT 0350 R05/0550N R23/0700N FZFG
               VV001 M02/M02 Q1026 NOSIG=
METAR     LFSB 102330Z AUTO 15005KT 9000 NSC M02/M04 Q1025 NOSIG=
METAR     LSZB 102320Z AUTO VRB01KT 0150 R14/0250N FZFG VV001
               M05/M06 Q1025=
METAR     LSZB 102350Z AUTO 11001KT 2900 R14/0325N FZFG FEW003
               M05/M06 Q1025=
METAR     LSZA 102320Z AUTO VRB02KT CAVOK 00/M00 Q1025=
METAR     LSZA 102350Z AUTO 36002KT CAVOK M01/M02 Q1025=
METAR     LSZG 102320Z AUTO 21004KT 0350 FZFG VV002 M01/M01 Q1026=
METAR     LSZG 102350Z AUTO 21005KT 0350 FZFG VV002 M01/M01 Q1026=
METAR     LSZR 102320Z AUTO VRB02KT 0100 R10/0500N FZFG VV000
               M00/M00 Q1024=
METAR     LSZR 102350Z AUTO VRB01KT 0100 R10/0400N FZFG VV000
               M01/M01 Q1024=
METAR     LSGS 102320Z NIL=
METAR     LSGS 102350Z NIL=
METAR     LSGC 102320Z AUTO 25004KT CAVOK M02/M09 Q1024=
METAR     LSGC 102350Z AUTO 25003KT CAVOK M02/M09 Q1024=
METAR     LSZC 102320Z AUTO 07008KT 9999 NCD M02/M03 Q1025=
METAR     LSZC 102350Z AUTO 07008KT 9999 NCD M02/M03 Q1025=
METAR     LSZL 102320Z NIL=
METAR     LSZL 102350Z AUTO VRB01KT 9999NDV NCD M01/M02 Q1025 RMK=
METAR     LSZS 102320Z AUTO VRB02KT 9999 NCD M08/M08 Q1025=
METAR     LSZS 102350Z AUTO 18002KT 9999 NCD M07/M07 Q1025=
METAR     LSMA 102350Z AUTO 20003KT 9999NDV NCD M03/M04 Q1025 RMK=
METAR     LSMA NIL=
METAR     LSMD 102350Z AUTO 13002KT 4500NDV SCT001 M02/M03 Q1025
               RMK=
METAR     LSMD NIL=
METAR     LSME 102350Z AUTO 00000KT 0500NDV R04/0750VP2000U
               R22/0600N FZFG NCD M05/M06 Q1025 RMK=
METAR     LSME NIL=
METAR     LSMM 102350Z AUTO 09003KT 9999NDV NCD M07/M08 Q1025 RMK=
METAR     LSMM NIL=
METAR     LSMP 102350Z AUTO 18003KT 160V220 0400NDV R05/0550V0700N
               R23/0500N -SHSN FZFG VV001 M02/M02 Q1026 RMK=
METAR     LSMP NIL=
METAR     LSMS 102350Z AUTO 00000KT 9999NDV NCD M02/M04 Q1026 RMK
               BLU=
METAR     LSMS NIL=
Aktualisiert am Sonntag, 11. Dezember 2016, 01:01 Uhr

TAF Schweiz

TAF     LSZH 102025Z 1021/1203 VRB03KT 6000 MIFG NSC TX05/1114Z
             TNM05/1102Z BECMG 1021/1023 2500 BCFG PROB40
             1100/1108 0400 FZFG VV002 BECMG 1108/1110 4500 BR
             BKN050 BECMG 1110/1112 7000 PROB30 TEMPO 1111/1114 RA
             BECMG 1117/1120 4500 BR BKN008 BECMG 1122/1124 2500
             BCFG BKN003 PROB40 1200/1203 0800 FG VV003=
TAF     LSGG 102025Z 1021/1203 VRB03KT 0500 FZFG VV002 TX02/1115Z
             TNM02/1106Z BECMG 1110/1112 2000 BR BKN003 BECMG
             1112/1114 3000 SCT005 BECMG 1114/1118 SCT005 BKN020
             BECMG 1123/1203 2000 SCT005 SCT015 PROB30 1200/1203
             BKN008=
TAF     LFSB 101700Z 1018/1118 17005KT CAVOK BECMG 1107/1110 BKN030
             TEMPO 1108/1112 -RA TEMPO 1115/1118 BKN010=
TAF AAE LSGS 101930Z 1019/1024 CNL=
TAF     LSGS 101425Z 1015/1024 VRB03KT CAVOK=
TAF AAH LSZA 102054Z 1020/1024 CNL=
TAF     LSZA 101425Z 1015/1024 VRB02KT CAVOK=
TAF AAF LSZB 102054Z 1020/1024 CNL=
TAF     LSZB 101425Z 1015/1024 VRB03KT CAVOK BECMG 1016/1018 7000
             NSC BECMG 1020/1022 2000 BCFG PROB40 1022/1024 0400
             FZFG VV002=
TAF AAF LSZG 102054Z 1020/1024 CNL=
TAF AAC LSZG 101710Z 1017/1024 VRB03KT 0150 FZFG VV001=
TAF AAA LSZG 101501Z 1015/1024 VRB03KT 0900 BCFG OVC002 BECMG
             1016/1019 0250 FZFG VV001=
TAF     LSZG 101425Z 1015/1024 VRB03KT 2500 BR OVC003 BECMG
             1016/1018 1400 BCFG BECMG 1018/1020 0500 FZFG VV001=
TAF CCA LSZR 101425Z 1015/1024 VRB03KT 3500 BR OVC003 BECMG
             1015/1018 2000 BCFG PROB40 1018/1024 0400 FZFG VV002=
TAF AAG LSZR 102054Z 1020/1024 CNL=
TAF AAB LSZR 101538Z 1015/1024 VRB03KT 0600 FG VV002 BECMG
             1016/1019 0250 FZFG PROB40 TEMPO 1016/1019 3000 BR
             OVC003=
TAF AAD LSGC 101929Z 1019/1024 CNL=
TAF     LSGC 101425Z 1015/1024 VRB03KT CAVOK=
TAF AAH LSZS 102054Z 1020/1024 CNL=
TAF     LSZS 101425Z 1015/1024 VRB03KT CAVOK TX09/1015Z=
TAF     LSMA 101625Z 1017/1123 VRB03KT CAVOK PROB40 1021/1108 4500
             BR BECMG 1110/1113 7000 BKN060 PROB30 TEMPO 1113/1116
             RA BECMG 1116/1119 4500 BR BKN012=
TAF     LSMD 101625Z 1017/1123 VRB03KT 6000 NSC BECMG 1017/1019
             4000 BR BECMG 1019/1021 2500 BCFG PROB40 1023/1108
             0400 FZFG VV002 BECMG 1108/1110 4000 BR BECMG
             1110/1112 8000 BKN050 PROB30 TEMPO 1111/1115 RA BECMG
             1115/1118 4500 BR BKN007=
TAF     LSME 101625Z 1017/1123 VRB03KT 0750 BCFG FEW001 BECMG
             1018/1021 0250 FZFG VV002 BECMG 1108/1110 4000 BR
             BECMG 1110/1112 8000 BKN050 PROB30 TEMPO 1112/1116 RA
             BECMG 1116/1119 4500 BR BKN007=
TAF     LSMM 101625Z 1017/1123 VRB03KT CAVOK PROB40 1022/1108 4500
             BR BECMG 1110/1113 7000 BKN070 PROB30 TEMPO 1113/1116
             RA BECMG 1116/1119 4500 BR BKN014=
TAF     LSMP 101625Z 1017/1123 VRB03KT 0300 FZFG VV001 PROB40
             1113/1116 2000 BR SCT005=
Aktualisiert am Samstag, 10. Dezember 2016, 23:02 Uhr